sensor_id;sensor_type;location;lat;lon;timestamp;pressure;altitude;pressure_sealevel;temperature;humidity
7433;BME280;32233;49.500;7.764;2023-01-19T00:00:44;97371.06;;;-4.51;100.00
7433;BME280;32233;49.500;7.764;2023-01-19T00:03:10;97372.19;;;-4.25;100.00
7433;BME280;32233;49.500;7.764;2023-01-19T00:05:42;97377.06;;;-4.02;100.00
7433;BME280;32233;49.500;7.764;2023-01-19T00:08:09;97383.19;;;-4.03;100.00
7433;BME280;32233;49.500;7.764;2023-01-19T00:10:45;97384.00;;;-3.83;100.00
7433;BME280;32233;49.500;7.764;2023-01-19T00:13:12;97381.13;;;-3.80;100.00
7433;BME280;32233;49.500;7.764;2023-01-19T00:15:39;97373.38;;;-3.80;100.00
7433;BME280;32233;49.500;7.764;2023-01-19T00:18:05;97373.81;;;-3.85;100.00
7433;BME280;32233;49.500;7.764;2023-01-19T00:20:35;97383.19;;;-3.84;100.00
7433;BME280;32233;49.500;7.764;2023-01-19T00:23:02;97380.44;;;-3.63;100.00
7433;BME280;32233;49.500;7.764;2023-01-19T00:25:30;97384.66;;;-3.62;100.00
7433;BME280;32233;49.500;7.764;2023-01-19T00:27:57;97386.78;;;-3.38;100.00
7433;BME280;32233;49.500;7.764;2023-01-19T00:30:26;97387.56;;;-3.28;100.00
7433;BME280;32233;49.500;7.764;2023-01-19T00:32:53;97389.78;;;-3.33;100.00
7433;BME280;32233;49.500;7.764;2023-01-19T00:35:19;97391.34;;;-3.59;100.00
7433;BME280;32233;49.500;7.764;2023-01-19T00:37:46;97392.00;;;-3.57;100.00
7433;BME280;32233;49.500;7.764;2023-01-19T00:40:12;97398.38;;;-3.42;100.00
7433;BME280;32233;49.500;7.764;2023-01-19T00:42:39;97393.00;;;-3.21;100.00
7433;BME280;32233;49.500;7.764;2023-01-19T00:45:07;97395.75;;;-3.22;100.00
7433;BME280;32233;49.500;7.764;2023-01-19T00:47:34;97401.31;;;-3.27;100.00
7433;BME280;32233;49.500;7.764;2023-01-19T00:50:00;97398.59;;;-3.26;100.00
7433;BME280;32233;49.500;7.764;2023-01-19T00:52:27;97393.81;;;-3.20;100.00
7433;BME280;32233;49.500;7.764;2023-01-19T00:54:53;97400.06;;;-3.13;100.00
7433;BME280;32233;49.500;7.764;2023-01-19T00:57:20;97402.50;;;-3.12;100.00
7433;BME280;32233;49.500;7.764;2023-01-19T00:59:46;97407.56;;;-3.20;100.00
7433;BME280;32233;49.500;7.764;2023-01-19T01:02:13;97400.81;;;-2.93;100.00
7433;BME280;32233;49.500;7.764;2023-01-19T01:04:39;97401.25;;;-2.98;100.00
7433;BME280;32233;49.500;7.764;2023-01-19T01:07:06;97400.13;;;-2.95;100.00
7433;BME280;32233;49.500;7.764;2023-01-19T01:09:32;97400.81;;;-2.66;100.00
7433;BME280;32233;49.500;7.764;2023-01-19T01:11:59;97396.88;;;-2.97;100.00
7433;BME280;32233;49.500;7.764;2023-01-19T01:14:25;97399.84;;;-2.92;100.00
7433;BME280;32233;49.500;7.764;2023-01-19T01:16:52;97405.03;;;-2.92;100.00
7433;BME280;32233;49.500;7.764;2023-01-19T01:19:19;97398.94;;;-3.01;100.00
7433;BME280;32233;49.500;7.764;2023-01-19T01:21:46;97401.78;;;-3.04;100.00
7433;BME280;32233;49.500;7.764;2023-01-19T01:24:13;97412.97;;;-2.76;100.00
7433;BME280;32233;49.500;7.764;2023-01-19T01:26:39;97408.78;;;-2.87;100.00
7433;BME280;32233;49.500;7.764;2023-01-19T01:29:05;97414.28;;;-3.00;100.00
7433;BME280;32233;49.500;7.764;2023-01-19T01:31:33;97410.94;;;-2.82;100.00
7433;BME280;32233;49.500;7.764;2023-01-19T01:34:00;97412.03;;;-2.75;100.00
7433;BME280;32233;49.500;7.764;2023-01-19T01:36:27;97413.56;;;-2.55;100.00
7433;BME280;32233;49.500;7.764;2023-01-19T01:38:57;97416.16;;;-2.55;100.00
7433;BME280;32233;49.500;7.764;2023-01-19T01:41:23;97416.25;;;-2.46;100.00
7433;BME280;32233;49.500;7.764;2023-01-19T01:43:56;97415.72;;;-2.50;100.00
7433;BME280;32233;49.500;7.764;2023-01-19T01:46:29;97421.41;;;-2.46;100.00
7433;BME280;32233;49.500;7.764;2023-01-19T01:49:04;97412.09;;;-2.12;100.00
7433;BME280;32233;49.500;7.764;2023-01-19T01:51:50;97416.94;;;-2.09;100.00
7433;BME280;32233;49.500;7.764;2023-01-19T01:54:19;97417.47;;;-2.05;100.00
7433;BME280;32233;49.500;7.764;2023-01-19T01:56:49;97424.59;;;-1.89;100.00
7433;BME280;32233;49.500;7.764;2023-01-19T01:59:25;97429.63;;;-1.70;100.00
7433;BME280;32233;49.500;7.764;2023-01-19T02:01:55;97428.97;;;-1.54;100.00
7433;BME280;32233;49.500;7.764;2023-01-19T02:04:47;97435.75;;;-1.53;100.00
7433;BME280;32233;49.500;7.764;2023-01-19T02:07:20;97429.75;;;-1.54;100.00
7433;BME280;32233;49.500;7.764;2023-01-19T02:10:08;97436.06;;;-1.56;100.00
7433;BME280;32233;49.500;7.764;2023-01-19T02:12:53;97435.91;;;-1.55;100.00
7433;BME280;32233;49.500;7.764;2023-01-19T02:15:42;97441.41;;;-1.58;100.00
7433;BME280;32233;49.500;7.764;2023-01-19T02:18:08;97444.34;;;-1.35;100.00
7433;BME280;32233;49.500;7.764;2023-01-19T02:20:37;97443.69;;;-1.55;100.00
7433;BME280;32233;49.500;7.764;2023-01-19T02:23:12;97441.63;;;-1.69;100.00
7433;BME280;32233;49.500;7.764;2023-01-19T02:25:41;97446.94;;;-1.53;100.00
7433;BME280;32233;49.500;7.764;2023-01-19T02:28:08;97436.41;;;-1.33;100.00
7433;BME280;32233;49.500;7.764;2023-01-19T02:30:37;97443.38;;;-1.34;100.00
7433;BME280;32233;49.500;7.764;2023-01-19T02:33:05;97443.31;;;-1.42;100.00
7433;BME280;32233;49.500;7.764;2023-01-19T02:35:33;97438.81;;;-1.58;100.00
7433;BME280;32233;49.500;7.764;2023-01-19T02:38:02;97434.94;;;-1.54;100.00
7433;BME280;32233;49.500;7.764;2023-01-19T02:40:29;97432.19;;;-1.34;100.00
7433;BME280;32233;49.500;7.764;2023-01-19T02:42:57;97442.69;;;-1.18;100.00
7433;BME280;32233;49.500;7.764;2023-01-19T02:45:26;97440.56;;;-1.40;100.00
7433;BME280;32233;49.500;7.764;2023-01-19T02:47:53;97443.38;;;-1.34;100.00
7433;BME280;32233;49.500;7.764;2023-01-19T02:50:47;97434.00;;;-1.70;100.00
7433;BME280;32233;49.500;7.764;2023-01-19T02:53:41;97434.28;;;-1.56;100.00
7433;BME280;32233;49.500;7.764;2023-01-19T03:01:39;97431.56;;;-1.28;100.00
7433;BME280;32233;49.500;7.764;2023-01-19T03:04:33;97426.19;;;-1.09;100.00
7433;BME280;32233;49.500;7.764;2023-01-19T03:09:58;97419.53;;;-1.11;100.00
7433;BME280;32233;49.500;7.764;2023-01-19T03:12:50;97418.88;;;-1.13;100.00
7433;BME280;32233;49.500;7.764;2023-01-19T03:15:26;97415.97;;;-1.10;100.00
7433;BME280;32233;49.500;7.764;2023-01-19T03:17:57;97424.41;;;-1.08;100.00
7433;BME280;32233;49.500;7.764;2023-01-19T03:20:26;97418.81;;;-0.95;100.00
7433;BME280;32233;49.500;7.764;2023-01-19T03:23:03;97418.81;;;-0.95;100.00
7433;BME280;32233;49.500;7.764;2023-01-19T03:25:34;97422.25;;;-0.87;100.00
7433;BME280;32233;49.500;7.764;2023-01-19T03:28:03;97415.03;;;-0.75;100.00
7433;BME280;32233;49.500;7.764;2023-01-19T03:30:34;97420.28;;;-0.93;100.00
7433;BME280;32233;49.500;7.764;2023-01-19T03:33:07;97423.53;;;-0.91;100.00
7433;BME280;32233;49.500;7.764;2023-01-19T03:35:36;97417.28;;;-0.80;100.00
7433;BME280;32233;49.500;7.764;2023-01-19T03:38:08;97418.25;;;-0.81;100.00
7433;BME280;32233;49.500;7.764;2023-01-19T03:40:38;97422.84;;;-1.01;100.00
7433;BME280;32233;49.500;7.764;2023-01-19T03:43:05;97421.88;;;-1.00;100.00
7433;BME280;32233;49.500;7.764;2023-01-19T03:45:32;97424.97;;;-0.96;100.00
7433;BME280;32233;49.500;7.764;2023-01-19T03:47:59;97418.88;;;-0.79;100.00
7433;BME280;32233;49.500;7.764;2023-01-19T03:50:28;97417.41;;;-0.90;100.00
7433;BME280;32233;49.500;7.764;2023-01-19T03:53:08;97426.72;;;-1.05;100.00
7433;BME280;32233;49.500;7.764;2023-01-19T03:55:37;97423.59;;;-1.09;100.00
7433;BME280;32233;49.500;7.764;2023-01-19T03:58:05;97422.97;;;-1.03;100.00
7433;BME280;32233;49.500;7.764;2023-01-19T04:00:32;97421.88;;;-1.00;100.00
7433;BME280;32233;49.500;7.764;2023-01-19T04:02:59;97428.22;;;-0.94;100.00
7433;BME280;32233;49.500;7.764;2023-01-19T04:05:26;97426.53;;;-1.04;100.00
7433;BME280;32233;49.500;7.764;2023-01-19T04:07:53;97419.09;;;-0.98;100.00
7433;BME280;32233;49.500;7.764;2023-01-19T04:10:20;97423.59;;;-1.09;100.00
7433;BME280;32233;49.500;7.764;2023-01-19T04:12:47;97422.03;;;-1.02;100.00
7433;BME280;32233;49.500;7.764;2023-01-19T04:15:14;97421.22;;;-1.02;100.00
7433;BME280;32233;49.500;7.764;2023-01-19T04:17:41;97420.66;;;-1.14;100.00
7433;BME280;32233;49.500;7.764;2023-01-19T04:20:08;97419.22;;;-1.34;100.00
7433;BME280;32233;49.500;7.764;2023-01-19T04:22:34;97425.91;;;-1.50;100.00
7433;BME280;32233;49.500;7.764;2023-01-19T04:25:01;97423.25;;;-1.58;100.00
7433;BME280;32233;49.500;7.764;2023-01-19T04:27:28;97416.28;;;-1.57;100.00
7433;BME280;32233;49.500;7.764;2023-01-19T04:29:54;97417.50;;;-1.43;100.00
7433;BME280;32233;49.500;7.764;2023-01-19T04:32:21;97416.88;;;-1.45;100.00
7433;BME280;32233;49.500;7.764;2023-01-19T04:34:48;97413.25;;;-1.53;100.00
7433;BME280;32233;49.500;7.764;2023-01-19T04:37:14;97412.66;;;-1.46;100.00
7433;BME280;32233;49.500;7.764;2023-01-19T04:39:41;97410.63;;;-1.35;100.00
7433;BME280;32233;49.500;7.764;2023-01-19T04:42:07;97413.16;;;-1.43;100.00
7433;BME280;32233;49.500;7.764;2023-01-19T04:44:34;97414.50;;;-1.39;100.00
7433;BME280;32233;49.500;7.764;2023-01-19T04:47:00;97414.28;;;-1.45;100.00
7433;BME280;32233;49.500;7.764;2023-01-19T04:49:28;97417.97;;;-1.48;100.00
7433;BME280;32233;49.500;7.764;2023-01-19T04:51:55;97412.09;;;-1.32;100.00
7433;BME280;32233;49.500;7.764;2023-01-19T04:54:21;97415.59;;;-1.15;100.00
7433;BME280;32233;49.500;7.764;2023-01-19T04:56:48;97416.97;;;-1.29;100.00
7433;BME280;32233;49.500;7.764;2023-01-19T04:59:14;97413.94;;;-1.25;100.00
7433;BME280;32233;49.500;7.764;2023-01-19T05:01:41;97424.53;;;-1.18;100.00
7433;BME280;32233;49.500;7.764;2023-01-19T05:04:07;97423.38;;;-1.15;100.00
7433;BME280;32233;49.500;7.764;2023-01-19T05:06:34;97428.06;;;-1.19;100.00
7433;BME280;32233;49.500;7.764;2023-01-19T05:09:00;97435.34;;;-1.22;100.00
7433;BME280;32233;49.500;7.764;2023-01-19T05:11:27;97433.91;;;-1.17;100.00
7433;BME280;32233;49.500;7.764;2023-01-19T05:13:53;97440.03;;;-1.00;100.00
7433;BME280;32233;49.500;7.764;2023-01-19T05:16:20;97435.94;;;-1.03;100.00
7433;BME280;32233;49.500;7.764;2023-01-19T05:18:46;97433.97;;;-1.35;100.00
7433;BME280;32233;49.500;7.764;2023-01-19T05:21:13;97435.94;;;-1.29;100.00
7433;BME280;32233;49.500;7.764;2023-01-19T05:23:39;97434.44;;;-1.13;100.00
7433;BME280;32233;49.500;7.764;2023-01-19T05:26:07;97437.22;;;-1.07;100.00
7433;BME280;32233;49.500;7.764;2023-01-19T05:28:35;97438.06;;;-1.06;100.00
7433;BME280;32233;49.500;7.764;2023-01-19T05:31:03;97431.69;;;-1.12;100.00
7433;BME280;32233;49.500;7.764;2023-01-19T05:33:29;97441.28;;;-1.04;100.00
7433;BME280;32233;49.500;7.764;2023-01-19T05:35:56;97434.50;;;-1.05;100.00
7433;BME280;32233;49.500;7.764;2023-01-19T05:38:23;97437.84;;;-1.13;100.00
7433;BME280;32233;49.500;7.764;2023-01-19T05:41:00;97432.91;;;-0.98;100.00
7433;BME280;32233;49.500;7.764;2023-01-19T05:43:27;97432.44;;;-0.93;100.00
7433;BME280;32233;49.500;7.764;2023-01-19T05:45:53;97439.38;;;-1.02;100.00
7433;BME280;32233;49.500;7.764;2023-01-19T05:48:20;97440.88;;;-0.91;100.00
7433;BME280;32233;49.500;7.764;2023-01-19T05:50:46;97439.72;;;-0.97;100.00
7433;BME280;32233;49.500;7.764;2023-01-19T05:53:15;97446.88;;;-0.91;100.00
7433;BME280;32233;49.500;7.764;2023-01-19T05:55:42;97453.50;;;-0.96;100.00
7433;BME280;32233;49.500;7.764;2023-01-19T05:58:08;97451.16;;;-0.82;100.00
7433;BME280;32233;49.500;7.764;2023-01-19T06:00:35;97453.75;;;-0.82;100.00
7433;BME280;32233;49.500;7.764;2023-01-19T06:03:01;97455.56;;;-0.74;100.00
7433;BME280;32233;49.500;7.764;2023-01-19T06:05:29;97457.41;;;-0.92;100.00
7433;BME280;32233;49.500;7.764;2023-01-19T06:07:55;97455.22;;;-0.79;100.00
7433;BME280;32233;49.500;7.764;2023-01-19T06:10:22;97463.31;;;-0.82;100.00
7433;BME280;32233;49.500;7.764;2023-01-19T06:12:49;97454.09;;;-0.77;100.00
7433;BME280;32233;49.500;7.764;2023-01-19T06:15:17;97462.41;;;-0.73;100.00
7433;BME280;32233;49.500;7.764;2023-01-19T06:17:44;97461.69;;;-0.83;100.00
7433;BME280;32233;49.500;7.764;2023-01-19T06:20:11;97459.38;;;-0.86;100.00
7433;BME280;32233;49.500;7.764;2023-01-19T06:22:39;97469.06;;;-0.96;100.00
7433;BME280;32233;49.500;7.764;2023-01-19T06:25:06;97467.78;;;-0.92;100.00
7433;BME280;32233;49.500;7.764;2023-01-19T06:27:32;97467.13;;;-0.94;100.00
7433;BME280;32233;49.500;7.764;2023-01-19T06:29:59;97474.09;;;-0.95;100.00
7433;BME280;32233;49.500;7.764;2023-01-19T06:32:25;97473.38;;;-0.79;100.00
7433;BME280;32233;49.500;7.764;2023-01-19T06:34:52;97474.25;;;-0.70;100.00
7433;BME280;32233;49.500;7.764;2023-01-19T06:37:19;97476.59;;;-0.85;100.00
7433;BME280;32233;49.500;7.764;2023-01-19T06:39:46;97471.41;;;-0.85;100.00
7433;BME280;32233;49.500;7.764;2023-01-19T06:42:12;97480.34;;;-0.80;100.00
7433;BME280;32233;49.500;7.764;2023-01-19T06:44:39;97486.88;;;-0.76;100.00
7433;BME280;32233;49.500;7.764;2023-01-19T06:47:13;97497.72;;;-0.80;100.00
7433;BME280;32233;49.500;7.764;2023-01-19T06:49:41;97502.72;;;-0.79;100.00
7433;BME280;32233;49.500;7.764;2023-01-19T06:52:12;97506.81;;;-0.76;100.00
7433;BME280;32233;49.500;7.764;2023-01-19T06:54:41;97512.97;;;-0.77;100.00
7433;BME280;32233;49.500;7.764;2023-01-19T06:57:11;97512.81;;;-0.76;100.00
7433;BME280;32233;49.500;7.764;2023-01-19T06:59:38;97510.22;;;-0.76;100.00
7433;BME280;32233;49.500;7.764;2023-01-19T07:02:05;97513.69;;;-0.67;100.00
7433;BME280;32233;49.500;7.764;2023-01-19T07:04:51;97525.84;;;-0.67;100.00
7433;BME280;32233;49.500;7.764;2023-01-19T07:07:18;97524.91;;;-0.58;100.00
7433;BME280;32233;49.500;7.764;2023-01-19T07:09:44;97518.53;;;-0.72;100.00
7433;BME280;32233;49.500;7.764;2023-01-19T07:12:11;97531.25;;;-0.61;100.00
7433;BME280;32233;49.500;7.764;2023-01-19T07:14:37;97530.88;;;-0.66;100.00
7433;BME280;32233;49.500;7.764;2023-01-19T07:17:04;97534.19;;;-0.56;100.00
7433;BME280;32233;49.500;7.764;2023-01-19T07:19:30;97533.91;;;-0.53;99.97
7433;BME280;32233;49.500;7.764;2023-01-19T07:21:57;97531.91;;;-0.59;100.00
7433;BME280;32233;49.500;7.764;2023-01-19T07:24:24;97523.25;;;-0.67;100.00
7433;BME280;32233;49.500;7.764;2023-01-19T07:26:50;97538.59;;;-0.74;100.00
7433;BME280;32233;49.500;7.764;2023-01-19T07:29:17;97537.91;;;-0.84;100.00
7433;BME280;32233;49.500;7.764;2023-01-19T07:31:43;97534.69;;;-0.78;100.00
7433;BME280;32233;49.500;7.764;2023-01-19T07:34:10;97520.25;;;-0.81;100.00
7433;BME280;32233;49.500;7.764;2023-01-19T07:36:37;97542.19;;;-0.75;100.00
7433;BME280;32233;49.500;7.764;2023-01-19T07:39:04;97544.19;;;-0.87;100.00
7433;BME280;32233;49.500;7.764;2023-01-19T07:41:30;97556.19;;;-0.68;100.00
7433;BME280;32233;49.500;7.764;2023-01-19T07:43:57;97553.28;;;-0.65;100.00
7433;BME280;32233;49.500;7.764;2023-01-19T07:46:24;97556.06;;;-0.58;100.00
7433;BME280;32233;49.500;7.764;2023-01-19T07:48:51;97562.00;;;-0.66;100.00
7433;BME280;32233;49.500;7.764;2023-01-19T07:51:17;97555.88;;;-0.65;100.00
7433;BME280;32233;49.500;7.764;2023-01-19T07:53:44;97567.44;;;-0.59;100.00
7433;BME280;32233;49.500;7.764;2023-01-19T07:56:11;97561.00;;;-0.47;100.00
7433;BME280;32233;49.500;7.764;2023-01-19T07:58:38;97574.09;;;-0.57;100.00
7433;BME280;32233;49.500;7.764;2023-01-19T08:01:09;97575.22;;;-0.59;100.00
7433;BME280;32233;49.500;7.764;2023-01-19T08:03:36;97568.63;;;-0.45;100.00
7433;BME280;32233;49.500;7.764;2023-01-19T08:06:04;97575.25;;;-0.51;100.00
7433;BME280;32233;49.500;7.764;2023-01-19T08:08:31;97579.53;;;-0.42;100.00
7433;BME280;32233;49.500;7.764;2023-01-19T08:10:58;97581.53;;;-0.36;100.00
7433;BME280;32233;49.500;7.764;2023-01-19T08:13:25;97583.41;;;-0.46;100.00
7433;BME280;32233;49.500;7.764;2023-01-19T08:15:52;97578.88;;;-0.44;100.00
7433;BME280;32233;49.500;7.764;2023-01-19T08:18:19;97582.59;;;-0.46;100.00
7433;BME280;32233;49.500;7.764;2023-01-19T08:20:46;97569.09;;;-0.50;100.00
7433;BME280;32233;49.500;7.764;2023-01-19T08:23:12;97575.06;;;-0.58;100.00
7433;BME280;32233;49.500;7.764;2023-01-19T08:25:41;97578.84;;;-0.52;100.00
7433;BME280;32233;49.500;7.764;2023-01-19T08:28:12;97572.25;;;-0.38;100.00
7433;BME280;32233;49.500;7.764;2023-01-19T08:30:39;97570.47;;;-0.64;100.00
7433;BME280;32233;49.500;7.764;2023-01-19T08:33:06;97560.41;;;-0.67;100.00
7433;BME280;32233;49.500;7.764;2023-01-19T08:35:38;97556.78;;;-0.74;100.00
7433;BME280;32233;49.500;7.764;2023-01-19T08:38:07;97574.75;;;-0.81;100.00
7433;BME280;32233;49.500;7.764;2023-01-19T08:40:36;97568.06;;;-0.83;100.00
7433;BME280;32233;49.500;7.764;2023-01-19T08:43:05;97574.44;;;-0.78;100.00
7433;BME280;32233;49.500;7.764;2023-01-19T08:45:37;97572.81;;;-0.79;100.00
7433;BME280;32233;49.500;7.764;2023-01-19T08:48:06;97574.06;;;-0.65;100.00
7433;BME280;32233;49.500;7.764;2023-01-19T08:50:33;97566.88;;;-0.45;100.00
7433;BME280;32233;49.500;7.764;2023-01-19T08:53:02;97574.50;;;-0.43;100.00
7433;BME280;32233;49.500;7.764;2023-01-19T08:55:29;97566.72;;;-0.43;100.00
7433;BME280;32233;49.500;7.764;2023-01-19T08:57:56;97572.03;;;-0.53;100.00
7433;BME280;32233;49.500;7.764;2023-01-19T09:00:25;97572.00;;;-0.27;99.93
7433;BME280;32233;49.500;7.764;2023-01-19T09:02:52;97571.56;;;-0.14;99.92
7433;BME280;32233;49.500;7.764;2023-01-19T09:05:19;97577.69;;;0.11;98.54
7433;BME280;32233;49.500;7.764;2023-01-19T09:07:46;97572.84;;;0.16;96.17
7433;BME280;32233;49.500;7.764;2023-01-19T09:10:14;97567.16;;;-0.22;98.51
7433;BME280;32233;49.500;7.764;2023-01-19T09:12:41;97575.44;;;-0.18;98.87
7433;BME280;32233;49.500;7.764;2023-01-19T09:15:09;97575.38;;;-0.01;98.56
7433;BME280;32233;49.500;7.764;2023-01-19T09:17:36;97579.72;;;0.25;97.77
7433;BME280;32233;49.500;7.764;2023-01-19T09:20:03;97590.94;;;0.34;95.90
7433;BME280;32233;49.500;7.764;2023-01-19T09:22:31;97585.31;;;0.55;94.49
7433;BME280;32233;49.500;7.764;2023-01-19T09:24:58;97585.19;;;0.81;93.63
7433;BME280;32233;49.500;7.764;2023-01-19T09:27:25;97588.25;;;0.60;92.80
7433;BME280;32233;49.500;7.764;2023-01-19T09:29:51;97578.63;;;0.52;93.89
7433;BME280;32233;49.500;7.764;2023-01-19T09:32:20;97586.09;;;0.47;93.98
7433;BME280;32233;49.500;7.764;2023-01-19T09:34:46;97585.16;;;0.64;93.70
7433;BME280;32233;49.500;7.764;2023-01-19T09:37:13;97580.75;;;0.57;92.59
7433;BME280;32233;49.500;7.764;2023-01-19T09:39:41;97593.63;;;0.66;92.89
7433;BME280;32233;49.500;7.764;2023-01-19T09:44:44;97588.47;;;1.07;90.84
7433;BME280;32233;49.500;7.764;2023-01-19T09:47:16;97598.72;;;1.17;90.03
7433;BME280;32233;49.500;7.764;2023-01-19T09:49:50;97591.09;;;1.32;88.59
7433;BME280;32233;49.500;7.764;2023-01-19T09:52:18;97599.72;;;1.32;89.46
7433;BME280;32233;49.500;7.764;2023-01-19T09:54:52;97607.34;;;1.50;89.05
7433;BME280;32233;49.500;7.764;2023-01-19T09:57:21;97600.75;;;1.87;89.31
7433;BME280;32233;49.500;7.764;2023-01-19T09:59:48;97611.34;;;1.93;87.44
7433;BME280;32233;49.500;7.764;2023-01-19T10:05:03;97611.09;;;1.56;88.40
7433;BME280;32233;49.500;7.764;2023-01-19T10:07:43;97609.13;;;1.41;89.92
7433;BME280;32233;49.500;7.764;2023-01-19T10:10:24;97606.81;;;1.63;86.62
7433;BME280;32233;49.500;7.764;2023-01-19T10:18:43;97605.53;;;1.59;85.21
7433;BME280;32233;49.500;7.764;2023-01-19T10:21:40;97612.72;;;1.32;86.24
7433;BME280;32233;49.500;7.764;2023-01-19T10:24:23;97607.03;;;1.29;87.94
7433;BME280;32233;49.500;7.764;2023-01-19T10:26:53;97611.25;;;1.54;86.44
7433;BME280;32233;49.500;7.764;2023-01-19T10:29:46;97614.19;;;1.43;87.25
7433;BME280;32233;49.500;7.764;2023-01-19T10:32:28;97615.94;;;1.59;86.44
7433;BME280;32233;49.500;7.764;2023-01-19T10:34:56;97619.38;;;1.67;84.74
7433;BME280;32233;49.500;7.764;2023-01-19T10:37:33;97616.63;;;1.61;85.40
7433;BME280;32233;49.500;7.764;2023-01-19T10:42:39;97618.56;;;1.26;86.51
7433;BME280;32233;49.500;7.764;2023-01-19T10:45:17;97620.22;;;1.19;88.19
7433;BME280;32233;49.500;7.764;2023-01-19T10:47:45;97610.63;;;1.19;86.73
7433;BME280;32233;49.500;7.764;2023-01-19T10:50:42;97613.38;;;1.34;85.50
7433;BME280;32233;49.500;7.764;2023-01-19T10:53:20;97606.22;;;1.53;84.09
7433;BME280;32233;49.500;7.764;2023-01-19T10:55:47;97608.50;;;1.31;84.92
7433;BME280;32233;49.500;7.764;2023-01-19T10:58:33;97607.50;;;1.08;85.11
7433;BME280;32233;49.500;7.764;2023-01-19T11:03:44;97608.00;;;1.11;85.41
7433;BME280;32233;49.500;7.764;2023-01-19T11:08:45;97611.09;;;1.15;86.57
7433;BME280;32233;49.500;7.764;2023-01-19T11:11:13;97604.59;;;1.19;83.65
7433;BME280;32233;49.500;7.764;2023-01-19T11:13:40;97608.34;;;1.24;83.76
7433;BME280;32233;49.500;7.764;2023-01-19T11:16:26;97612.72;;;1.24;82.90
7433;BME280;32233;49.500;7.764;2023-01-19T11:18:55;97603.28;;;1.31;81.93
7433;BME280;32233;49.500;7.764;2023-01-19T11:21:25;97604.25;;;1.30;82.71
7433;BME280;32233;49.500;7.764;2023-01-19T11:23:54;97600.19;;;1.36;82.31
7433;BME280;32233;49.500;7.764;2023-01-19T11:26:42;97612.41;;;1.35;81.35
7433;BME280;32233;49.500;7.764;2023-01-19T11:29:20;97608.16;;;1.26;82.62
7433;BME280;32233;49.500;7.764;2023-01-19T11:31:48;97597.72;;;1.42;80.90
7433;BME280;32233;49.500;7.764;2023-01-19T11:34:33;97603.78;;;1.51;81.26
7433;BME280;32233;49.500;7.764;2023-01-19T11:37:02;97598.69;;;1.66;80.64
7433;BME280;32233;49.500;7.764;2023-01-19T11:39:31;97589.81;;;1.91;79.62
7433;BME280;32233;49.500;7.764;2023-01-19T11:42:11;97588.84;;;2.01;78.66
7433;BME280;32233;49.500;7.764;2023-01-19T11:44:43;97581.34;;;2.06;76.53
7433;BME280;32233;49.500;7.764;2023-01-19T11:47:24;97583.72;;;2.15;76.34
7433;BME280;32233;49.500;7.764;2023-01-19T11:50:13;97585.19;;;2.18;77.40
7433;BME280;32233;49.500;7.764;2023-01-19T11:52:55;97581.28;;;2.53;75.59
7433;BME280;32233;49.500;7.764;2023-01-19T11:55:33;97573.72;;;2.66;74.70
7433;BME280;32233;49.500;7.764;2023-01-19T11:58:02;97569.31;;;2.67;73.87
7433;BME280;32233;49.500;7.764;2023-01-19T12:00:41;97564.38;;;2.49;75.02
7433;BME280;32233;49.500;7.764;2023-01-19T12:03:16;97559.34;;;2.39;75.47
7433;BME280;32233;49.500;7.764;2023-01-19T12:05:48;97565.94;;;2.58;74.87
7433;BME280;32233;49.500;7.764;2023-01-19T12:08:22;97567.84;;;2.33;75.60
7433;BME280;32233;49.500;7.764;2023-01-19T12:10:51;97563.19;;;2.52;73.22
7433;BME280;32233;49.500;7.764;2023-01-19T12:13:22;97561.25;;;3.00;73.65
7433;BME280;32233;49.500;7.764;2023-01-19T12:15:53;97562.25;;;2.98;71.94
7433;BME280;32233;49.500;7.764;2023-01-19T12:18:27;97566.81;;;2.96;70.81
7433;BME280;32233;49.500;7.764;2023-01-19T12:20:55;97561.19;;;3.08;71.36
7433;BME280;32233;49.500;7.764;2023-01-19T12:23:30;97558.97;;;3.72;68.26
7433;BME280;32233;49.500;7.764;2023-01-19T12:26:23;97559.88;;;3.64;69.63
7433;BME280;32233;49.500;7.764;2023-01-19T12:28:55;97553.75;;;3.34;71.19
7433;BME280;32233;49.500;7.764;2023-01-19T12:31:24;97558.03;;;3.35;70.83
7433;BME280;32233;49.500;7.764;2023-01-19T12:33:51;97556.72;;;3.16;70.05
7433;BME280;32233;49.500;7.764;2023-01-19T12:39:03;97569.28;;;3.51;69.22
7433;BME280;32233;49.500;7.764;2023-01-19T12:41:39;97563.47;;;3.78;68.56
7433;BME280;32233;49.500;7.764;2023-01-19T12:46:51;97560.09;;;3.55;68.97
7433;BME280;32233;49.500;7.764;2023-01-19T12:49:21;97555.72;;;3.70;68.47
7433;BME280;32233;49.500;7.764;2023-01-19T12:51:51;97565.81;;;3.73;69.00
7433;BME280;32233;49.500;7.764;2023-01-19T12:54:28;97552.56;;;3.89;67.60
7433;BME280;32233;49.500;7.764;2023-01-19T12:57:08;97556.31;;;4.46;66.59
7433;BME280;32233;49.500;7.764;2023-01-19T12:59:40;97559.69;;;4.61;64.01
7433;BME280;32233;49.500;7.764;2023-01-19T13:05:17;97557.13;;;4.32;64.67
7433;BME280;32233;49.500;7.764;2023-01-19T13:13:31;97553.66;;;5.04;63.08
7433;BME280;32233;49.500;7.764;2023-01-19T13:21:35;97557.50;;;3.17;67.59
7433;BME280;32233;49.500;7.764;2023-01-19T13:24:07;97557.19;;;2.97;69.41
7433;BME280;32233;49.500;7.764;2023-01-19T13:26:39;97555.81;;;2.86;71.39
7433;BME280;32233;49.500;7.764;2023-01-19T13:29:13;97561.06;;;3.01;70.73
7433;BME280;32233;49.500;7.764;2023-01-19T13:31:42;97558.44;;;3.01;70.81
7433;BME280;32233;49.500;7.764;2023-01-19T13:34:18;97554.16;;;2.62;71.43
7433;BME280;32233;49.500;7.764;2023-01-19T13:36:50;97554.25;;;2.69;72.01
7433;BME280;32233;49.500;7.764;2023-01-19T13:39:35;97552.38;;;2.32;73.15
7433;BME280;32233;49.500;7.764;2023-01-19T13:42:05;97556.81;;;2.23;73.40
7433;BME280;32233;49.500;7.764;2023-01-19T13:44:41;97551.47;;;2.16;75.74
7433;BME280;32233;49.500;7.764;2023-01-19T13:47:14;97552.25;;;2.25;75.34
7433;BME280;32233;49.500;7.764;2023-01-19T13:49:45;97559.72;;;2.28;75.94
7433;BME280;32233;49.500;7.764;2023-01-19T13:52:34;97564.22;;;2.03;77.31
7433;BME280;32233;49.500;7.764;2023-01-19T13:55:01;97562.59;;;2.02;77.84
7433;BME280;32233;49.500;7.764;2023-01-19T13:57:41;97555.59;;;2.03;78.05
7433;BME280;32233;49.500;7.764;2023-01-19T14:02:37;97561.94;;;2.08;77.91
7433;BME280;32233;49.500;7.764;2023-01-19T14:05:16;97568.69;;;1.78;78.92
7433;BME280;32233;49.500;7.764;2023-01-19T14:07:46;97563.13;;;1.97;78.55
7433;BME280;32233;49.500;7.764;2023-01-19T14:10:15;97571.22;;;2.03;77.93
7433;BME280;32233;49.500;7.764;2023-01-19T14:12:42;97574.72;;;1.79;78.46